METAR Data
IDs: Format: Raw Decoded Include TAF

Data at: 1628 UTC 26 Apr 2019

KLVS 261609Z AUTO 21018G22KT 10SM OVC013 11/07 A3029 RMK AO2 T01060067
KLVS 261553Z AUTO 20015KT 10SM BKN017 OVC024 11/07 A3029 RMK AO2 SLP193 T01110067
KLVS 261453Z AUTO 20018G24KT 10SM FEW016 BKN027 11/06 A3030 RMK AO2 SLP190 T01060061 $
KLVS 261438Z AUTO 21016KT 10SM SCT016 BKN025 OVC029 09/06 A3030 RMK AO2 T00940056 $
KLVS 261353Z AUTO 22008KT 10SM OVC018 08/06 A3031 RMK AO2 SLP201 T00830056
KLVS 261253Z AUTO 22007KT 10SM OVC023 08/06 A3031 RMK AO2 SLP191 T00780056
KLVS 261143Z AUTO 22010KT 10SM BKN027 OVC110 07/05 A3030 RMK AO2 T00670050
KLVS 261053Z AUTO 22009KT 10SM SCT025 06/04 A3030 RMK AO2 SLP187 T00610044
KLVS 261038Z AUTO 22008KT 10SM SCT028 06/04 A3030 RMK AO2 T00610044
KLVS 261005Z AUTO 23007KT 10SM BKN028 07/05 A3030 RMK AO2 T00720050
KLVS 260953Z AUTO 22008KT 10SM BKN030 07/05 A3030 RMK AO2 SLP189 T00720050
KLVS 260853Z AUTO 23003KT 10SM CLR 07/05 A3031 RMK AO2 SLP195 60000 T00720050 58014
KLVS 260753Z AUTO 11003KT 10SM BKN042 OVC055 08/06 A3033 RMK AO2 RAB11E20 SLP194 P0000 T00780056
KLVS 260653Z AUTO 00000KT 10SM OVC049 09/06 A3035 RMK AO2 RAB34E45 SLP199 P0000 T00890056 401830028
KLVS 260553Z AUTO 09003KT 10SM BKN048 OVC090 08/05 A3036 RMK AO2 SLP204 60000 T00830050 10172 20083 51019
KLVS 260453Z AUTO 06007KT 10SM OVC055 08/05 A3035 RMK AO2 SLP205 T00830050
KLVS 260353Z AUTO 34004KT 10SM FEW047 BKN060 09/05 A3032 RMK AO2 RAB00E30 SLP195 P0000 T00940050
KLVS 260253Z AUTO 10010KT 10SM OVC060 13/04 A3029 RMK AO2 SLP173 T01280044 53018
KLVS 260153Z AUTO 14009KT 10SM BKN110 12/04 A3024 RMK AO2 LTG DSNT NE SLP172 T01220044
KLVS 260053Z AUTO 16013KT 10SM SCT110 16/03 A3022 RMK AO2 LTG DSNT N SLP167 T01610033
KLVS 252353Z AUTO 15011KT 10SM FEW070 17/04 A3022 RMK AO2 SLP162 60002 T01720044 10183 20133 55005
KLVS 252253Z AUTO 15012G20KT 10SM SCT090 SCT120 18/04 A3022 RMK AO2 SLP163 T01780039
KLVS 252153Z AUTO 15011G17KT 10SM SCT060 17/04 A3022 RMK AO2 RAE00 SLP164 P0000 T01670044
KLVS 252053Z AUTO 14009KT 090V160 10SM -RA FEW030 BKN043 OVC110 14/08 A3024 RMK AO2 RAB24 SLP173 P0002 60002 T01440078 53006
KLVS 251953Z AUTO 12009KT 10SM BKN090 18/04 A3022 RMK AO2 SLP155 T01780039
KLVS 251853Z AUTO 08013G19KT 10SM CLR 17/04 A3021 RMK AO2 SLP157 T01720044
KLVS 251753Z AUTO 05013G21KT 10SM CLR 17/05 A3021 RMK AO2 SLP160 T01670050 10172 20028 51012
KLVS 251653Z AUTO 05012G19KT 010V070 10SM CLR 16/04 A3021 RMK AO2 SLP159 T01560044
KLVS 251605Z AUTO 04012KT 10SM FEW001 14/04 A3020 RMK AO2 T01440039
KLVS 251553Z AUTO 05015KT 10SM CLR 14/04 A3019 RMK AO2 SLP153 T01440039
KLVS 251453Z AUTO 03011KT 10SM CLR 14/03 A3017 RMK AO2 SLP141 T01440028 53023
KLVS 251353Z AUTO 36005KT 10SM CLR 10/03 A3013 RMK AO2 SLP133 T01000028
KLVS 251253Z AUTO 04007KT 10SM CLR 04/01 A3011 RMK AO2 SLP131 T00440006
KLVS 251153Z AUTO 33008KT 10SM CLR 06/00 A3009 RMK AO2 SLP123 T00560000 10083 20039 53012
KLVS 251053Z AUTO 36007KT 10SM CLR 04/01 A3007 RMK AO2 SLP115 T00440006
KLVS 250953Z AUTO 03006KT 10SM CLR 06/01 A3005 RMK AO2 SLP101 T00560006
KLVS 250853Z AUTO 28004KT 10SM CLR 07/01 A3004 RMK AO2 SLP097 T00670006 50000
KLVS 250753Z AUTO 32007KT 10SM CLR 08/01 A3004 RMK AO2 SLP092 T00780006
KLVS 250653Z AUTO 35007KT 10SM CLR 07/02 A3005 RMK AO2 SLP101 T00670017 401890006
KLVS 250553Z AUTO 19006KT 10SM CLR 06/03 A3004 RMK AO2 SLP100 60000 T00610028 10167 20061 50000
KLVS 250453Z AUTO 20008KT 10SM CLR 07/03 A3005 RMK AO2 SLP107 T00670033